Time,TemperatureF,DewpointF,PressureIn,WindDirection,WindDirectionDegrees,WindSpeedMPH,WindSpeedGustMPH,Humidity,HourlyPrecipIn,Conditions,Clouds,dailyrainin,SoftwareType,DateUTC
2013-05-21 00:01:00,64.6,58.3,29.96,North,0,0.0,0.0,80,0.00,,,0.00,meteobridge,2013-05-21 04:01:00,
2013-05-21 00:02:00,64.8,58.5,29.96,North,0,0.0,0.0,80,0.00,,,0.00,meteobridge,2013-05-21 04:02:00,
2013-05-21 00:03:00,64.8,58.5,29.96,North,0,0.0,0.0,80,0.00,,,0.00,meteobridge,2013-05-21 04:03:00,
2013-05-21 00:04:00,64.8,58.5,29.96,North,0,0.7,0.7,80,0.00,,,0.00,meteobridge,2013-05-21 04:04:00,
2013-05-21 00:10:00,64.6,58.6,29.95,North,0,0.0,0.0,81,0.00,,,0.00,meteobridge,2013-05-21 04:10:00,
2013-05-21 00:15:00,64.4,58.5,29.96,North,0,0.0,0.0,81,0.00,,,0.00,meteobridge,2013-05-21 04:15:00,
2013-05-21 00:21:00,64.2,58.6,29.96,North,0,0.0,0.0,82,0.00,,,0.00,meteobridge,2013-05-21 04:21:00,
2013-05-21 00:26:00,64.0,58.5,29.96,North,0,0.0,0.0,82,0.00,,,0.00,meteobridge,2013-05-21 04:26:00,
2013-05-21 00:32:00,65.1,59.5,29.96,North,0,0.0,0.0,82,0.00,,,0.00,meteobridge,2013-05-21 04:32:00,
2013-05-21 00:38:00,65.1,58.8,29.96,East,90,0.0,1.6,80,0.00,,,0.00,meteobridge,2013-05-21 04:38:00,
2013-05-21 00:43:00,64.2,57.9,29.96,East,90,0.0,0.0,80,0.00,,,0.00,meteobridge,2013-05-21 04:43:00,
2013-05-21 00:49:00,63.9,57.6,29.95,East,90,0.0,0.0,80,0.00,,,0.00,meteobridge,2013-05-21 04:49:00,
2013-05-21 00:55:00,63.7,57.7,29.95,West,270,2.2,2.2,81,0.00,,,0.00,meteobridge,2013-05-21 04:55:00,
2013-05-21 01:00:00,62.8,56.8,29.95,West,270,0.0,0.0,81,0.00,,,0.00,meteobridge,2013-05-21 05:00:00,
2013-05-21 01:06:00,62.6,56.7,29.95,West,270,0.0,0.0,81,0.00,,,0.00,meteobridge,2013-05-21 05:06:00,
2013-05-21 01:12:00,62.8,56.8,29.95,East,90,0.0,0.0,81,0.00,,,0.00,meteobridge,2013-05-21 05:12:00,
2013-05-21 01:17:00,62.4,57.2,29.96,East,90,0.0,0.0,83,0.00,,,0.00,meteobridge,2013-05-21 05:17:00,
2013-05-21 01:23:00,63.1,57.6,29.95,East,90,0.0,0.0,82,0.00,,,0.00,meteobridge,2013-05-21 05:23:00,
2013-05-21 01:28:00,63.3,57.7,29.95,East,90,0.0,0.0,82,0.00,,,0.00,meteobridge,2013-05-21 05:28:00,
2013-05-21 01:34:00,62.8,57.2,29.95,East,90,0.0,0.0,82,0.00,,,0.00,meteobridge,2013-05-21 05:34:00,
2013-05-21 01:40:00,62.4,57.6,29.94,SW,225,0.0,0.0,84,0.00,,,0.00,meteobridge,2013-05-21 05:40:00,
2013-05-21 01:45:00,62.2,57.4,29.93,South,180,0.0,0.7,84,0.00,,,0.00,meteobridge,2013-05-21 05:45:00,
2013-05-21 01:51:00,61.9,57.0,29.93,South,180,0.0,0.0,84,0.00,,,0.00,meteobridge,2013-05-21 05:51:00,
2013-05-21 01:57:00,61.7,56.8,29.93,South,180,0.0,1.6,84,0.00,,,0.00,meteobridge,2013-05-21 05:57:00,
2013-05-21 02:02:00,61.3,56.5,29.93,South,180,0.0,0.0,84,0.00,,,0.00,meteobridge,2013-05-21 06:02:00,
2013-05-21 02:08:00,61.3,56.5,29.93,South,180,0.0,0.0,84,0.00,,,0.00,meteobridge,2013-05-21 06:08:00,
2013-05-21 02:14:00,62.2,57.4,29.93,South,180,0.0,0.0,84,0.00,,,0.00,meteobridge,2013-05-21 06:14:00,
2013-05-21 02:19:00,62.4,57.6,29.93,South,180,0.0,0.0,84,0.00,,,0.00,meteobridge,2013-05-21 06:19:00,
2013-05-21 02:25:00,63.0,57.7,29.92,East,90,0.0,0.7,83,0.00,,,0.00,meteobridge,2013-05-21 06:25:00,
2013-05-21 02:31:00,62.2,57.4,29.92,East,90,0.0,0.0,84,0.00,,,0.00,meteobridge,2013-05-21 06:31:00,
2013-05-21 02:36:00,62.1,57.2,29.92,East,90,0.0,0.0,84,0.00,,,0.00,meteobridge,2013-05-21 06:36:00,
2013-05-21 02:42:00,62.1,57.2,29.93,North,0,1.6,1.6,84,0.00,,,0.00,meteobridge,2013-05-21 06:42:00,
2013-05-21 02:47:00,61.9,57.0,29.93,East,90,0.0,1.6,84,0.00,,,0.00,meteobridge,2013-05-21 06:47:00,
2013-05-21 02:53:00,62.1,57.6,29.93,East,90,0.0,1.6,85,0.00,,,0.00,meteobridge,2013-05-21 06:53:00,
2013-05-21 02:59:00,62.2,57.7,29.93,North,0,0.0,2.2,85,0.00,,,0.00,meteobridge,2013-05-21 06:59:00,
2013-05-21 03:04:00,62.2,57.7,29.92,North,0,0.0,0.0,85,0.00,,,0.00,meteobridge,2013-05-21 07:04:00,
2013-05-21 03:10:00,62.2,57.7,29.92,North,0,0.0,0.0,85,0.00,,,0.00,meteobridge,2013-05-21 07:10:00,
2013-05-21 03:16:00,62.2,57.7,29.92,North,0,0.0,0.0,85,0.00,,,0.00,meteobridge,2013-05-21 07:16:00,
2013-05-21 03:21:00,62.4,58.1,29.91,North,0,0.0,0.0,86,0.00,,,0.00,meteobridge,2013-05-21 07:21:00,
2013-05-21 03:27:00,62.6,58.1,29.91,West,270,0.0,0.0,85,0.00,,,0.00,meteobridge,2013-05-21 07:27:00,
2013-05-21 03:33:00,62.4,57.9,29.91,West,270,0.0,0.0,85,0.00,,,0.00,meteobridge,2013-05-21 07:33:00,
2013-05-21 03:38:00,62.1,57.6,29.91,West,270,0.0,0.0,85,0.00,,,0.00,meteobridge,2013-05-21 07:38:00,
2013-05-21 03:44:00,62.1,57.6,29.90,West,270,0.0,0.0,85,0.00,,,0.00,meteobridge,2013-05-21 07:44:00,
2013-05-21 03:49:00,62.2,57.7,29.91,West,270,0.0,0.0,85,0.00,,,0.00,meteobridge,2013-05-21 07:49:00,
2013-05-21 03:55:00,62.2,57.9,29.91,West,270,0.0,0.0,86,0.00,,,0.00,meteobridge,2013-05-21 07:55:00,
2013-05-21 04:01:00,62.1,57.7,29.91,West,270,0.0,0.0,86,0.00,,,0.00,meteobridge,2013-05-21 08:01:00,
2013-05-21 04:06:00,62.1,57.7,29.91,West,270,0.0,0.0,86,0.00,,,0.00,meteobridge,2013-05-21 08:06:00,
2013-05-21 04:12:00,62.2,57.9,29.91,West,270,0.0,0.0,86,0.00,,,0.00,meteobridge,2013-05-21 08:12:00,
2013-05-21 04:18:00,62.2,57.9,29.91,West,270,0.0,0.0,86,0.00,,,0.00,meteobridge,2013-05-21 08:18:00,
2013-05-21 04:23:00,62.2,57.9,29.92,West,270,0.0,0.0,86,0.00,,,0.00,meteobridge,2013-05-21 08:23:00,
2013-05-21 04:29:00,62.1,57.7,29.92,North,0,1.6,2.2,86,0.00,,,0.00,meteobridge,2013-05-21 08:29:00,
2013-05-21 04:35:00,61.9,57.6,29.92,North,0,0.0,0.0,86,0.00,,,0.00,meteobridge,2013-05-21 08:35:00,
2013-05-21 04:40:00,61.9,57.6,29.92,North,0,0.0,0.0,86,0.00,,,0.00,meteobridge,2013-05-21 08:40:00,
2013-05-21 04:46:00,61.7,57.4,29.92,East,90,0.0,0.0,86,0.00,,,0.00,meteobridge,2013-05-21 08:46:00,
2013-05-21 04:51:00,61.5,57.6,29.92,West,270,0.0,0.0,87,0.00,,,0.00,meteobridge,2013-05-21 08:51:00,
2013-05-21 04:57:00,61.5,57.6,29.93,North,0,0.0,0.0,87,0.00,,,0.00,meteobridge,2013-05-21 08:57:00,
2013-05-21 05:03:00,61.5,57.6,29.93,North,0,0.0,0.0,87,0.00,,,0.00,meteobridge,2013-05-21 09:03:00,
2013-05-21 05:08:00,61.7,57.7,29.93,North,0,0.0,0.0,87,0.00,,,0.00,meteobridge,2013-05-21 09:08:00,
2013-05-21 05:14:00,61.5,57.6,29.93,North,0,0.7,2.2,87,0.00,,,0.00,meteobridge,2013-05-21 09:14:00,
2013-05-21 05:20:00,61.5,57.6,29.93,North,0,0.0,0.0,87,0.00,,,0.00,meteobridge,2013-05-21 09:20:00,
2013-05-21 05:25:00,61.5,57.6,29.92,South,180,0.0,0.0,87,0.00,,,0.00,meteobridge,2013-05-21 09:25:00,
2013-05-21 05:31:00,61.5,57.6,29.92,South,180,0.0,0.0,87,0.00,,,0.00,meteobridge,2013-05-21 09:31:00,
2013-05-21 05:37:00,61.5,57.6,29.92,South,180,0.0,0.0,87,0.00,,,0.00,meteobridge,2013-05-21 09:37:00,
2013-05-21 05:42:00,61.5,57.6,29.93,South,180,0.0,0.0,87,0.00,,,0.00,meteobridge,2013-05-21 09:42:00,
2013-05-21 05:48:00,61.3,57.4,29.93,South,180,0.0,0.0,87,0.00,,,0.00,meteobridge,2013-05-21 09:48:00,
2013-05-21 05:54:00,61.5,57.9,29.93,North,0,0.0,0.0,88,0.00,,,0.00,meteobridge,2013-05-21 09:54:00,
2013-05-21 05:59:00,61.5,57.9,29.92,North,0,0.0,0.0,88,0.00,,,0.00,meteobridge,2013-05-21 09:59:00,
2013-05-21 06:05:00,62.2,58.6,29.92,South,180,0.7,1.6,88,0.00,,,0.00,meteobridge,2013-05-21 10:05:00,
2013-05-21 06:10:00,61.5,57.9,29.92,South,180,0.0,0.0,88,0.00,,,0.00,meteobridge,2013-05-21 10:10:00,
2013-05-21 06:16:00,61.7,58.1,29.92,South,180,0.0,0.0,88,0.00,,,0.00,meteobridge,2013-05-21 10:16:00,
2013-05-21 06:22:00,61.7,58.1,29.91,South,180,0.0,0.0,88,0.00,,,0.00,meteobridge,2013-05-21 10:22:00,
2013-05-21 06:27:00,62.1,58.5,29.91,South,180,0.0,0.0,88,0.00,,,0.00,meteobridge,2013-05-21 10:27:00,
2013-05-21 06:33:00,62.2,58.6,29.91,South,180,0.0,0.0,88,0.00,,,0.00,meteobridge,2013-05-21 10:33:00,
2013-05-21 06:39:00,62.6,58.6,29.92,South,180,0.0,0.0,87,0.00,,,0.00,meteobridge,2013-05-21 10:39:00,
2013-05-21 06:44:00,62.4,58.8,29.92,South,180,0.0,0.7,88,0.00,,,0.00,meteobridge,2013-05-21 10:44:00,
2013-05-21 06:50:00,62.4,58.8,29.93,South,180,0.0,0.0,88,0.00,,,0.00,meteobridge,2013-05-21 10:50:00,
2013-05-21 06:56:00,62.4,58.8,29.92,South,180,0.0,2.2,88,0.00,,,0.00,meteobridge,2013-05-21 10:56:00,
2013-05-21 07:01:00,63.0,59.4,29.93,South,180,0.0,0.0,88,0.00,,,0.00,meteobridge,2013-05-21 11:01:00,
2013-05-21 07:07:00,62.6,59.0,29.92,East,90,0.7,2.2,88,0.00,,,0.00,meteobridge,2013-05-21 11:07:00,
2013-05-21 07:12:00,62.2,58.6,29.93,SW,225,0.0,2.2,88,0.00,,,0.00,meteobridge,2013-05-21 11:12:00,
2013-05-21 07:18:00,62.4,58.8,29.93,North,0,0.0,0.0,88,0.00,,,0.00,meteobridge,2013-05-21 11:18:00,
2013-05-21 07:24:00,62.6,59.0,29.93,South,180,0.0,0.0,88,0.00,,,0.00,meteobridge,2013-05-21 11:24:00,
2013-05-21 07:29:00,62.6,59.0,29.93,South,180,2.2,2.2,88,0.00,,,0.00,meteobridge,2013-05-21 11:29:00,
2013-05-21 07:35:00,64.4,60.8,29.93,South,180,0.0,0.0,88,0.00,,,0.00,meteobridge,2013-05-21 11:35:00,
2013-05-21 07:41:00,63.1,59.5,29.93,South,180,2.2,2.2,88,0.00,,,0.00,meteobridge,2013-05-21 11:41:00,
2013-05-21 07:46:00,64.0,60.4,29.93,North,0,0.0,0.0,88,0.00,,,0.00,meteobridge,2013-05-21 11:46:00,
2013-05-21 07:52:00,64.2,60.3,29.93,North,0,0.0,0.0,87,0.00,,,0.00,meteobridge,2013-05-21 11:52:00,
2013-05-21 07:58:00,64.8,61.2,29.93,North,0,0.0,0.0,88,0.00,,,0.00,meteobridge,2013-05-21 11:58:00,
2013-05-21 08:03:00,66.0,62.1,29.93,West,270,3.1,3.1,87,0.00,,,0.00,meteobridge,2013-05-21 12:03:00,
2013-05-21 08:09:00,67.1,62.1,29.93,West,270,0.0,1.6,84,0.00,,,0.00,meteobridge,2013-05-21 12:09:00,
2013-05-21 08:14:00,67.8,61.7,29.93,North,0,0.0,0.0,81,0.00,,,0.00,meteobridge,2013-05-21 12:14:00,
2013-05-21 08:20:00,68.5,60.6,29.93,South,180,0.7,0.7,76,0.00,,,0.00,meteobridge,2013-05-21 12:20:00,
2013-05-21 08:26:00,69.6,61.0,29.93,West,270,0.0,0.7,74,0.00,,,0.00,meteobridge,2013-05-21 12:26:00,
2013-05-21 08:31:00,67.1,58.5,29.93,North,0,1.6,3.1,74,0.00,,,0.00,meteobridge,2013-05-21 12:31:00,
2013-05-21 08:37:00,66.4,57.9,29.93,North,0,3.1,3.1,74,0.00,,,0.00,meteobridge,2013-05-21 12:37:00,
2013-05-21 08:43:00,66.6,58.8,29.93,NE,45,2.2,3.1,76,0.00,,,0.00,meteobridge,2013-05-21 12:43:00,
2013-05-21 08:48:00,68.5,60.3,29.93,West,270,2.2,2.2,75,0.00,,,0.00,meteobridge,2013-05-21 12:48:00,
2013-05-21 08:54:00,68.0,59.4,29.93,North,0,2.2,3.1,74,0.00,,,0.00,meteobridge,2013-05-21 12:54:00,
2013-05-21 09:00:00,67.5,58.8,29.93,West,270,3.1,3.8,74,0.00,,,0.00,meteobridge,2013-05-21 13:00:00,
2013-05-21 09:05:00,69.6,61.0,29.93,East,90,2.2,2.2,74,0.00,,,0.00,meteobridge,2013-05-21 13:05:00,
2013-05-21 09:11:00,70.0,59.4,29.93,North,0,3.1,3.1,69,0.00,,,0.00,meteobridge,2013-05-21 13:11:00,
2013-05-21 09:17:00,72.5,61.3,29.92,South,180,0.7,1.6,68,0.00,,,0.00,meteobridge,2013-05-21 13:17:00,
2013-05-21 09:22:00,73.4,61.0,29.92,South,180,3.1,3.1,65,0.00,,,0.00,meteobridge,2013-05-21 13:22:00,
2013-05-21 09:28:00,73.4,61.0,29.92,SE,135,3.1,3.1,65,0.00,,,0.00,meteobridge,2013-05-21 13:28:00,
2013-05-21 09:33:00,75.6,62.6,29.91,SE,135,4.5,4.5,64,0.00,,,0.00,meteobridge,2013-05-21 13:33:00,
2013-05-21 09:39:00,75.0,62.4,29.91,South,180,0.0,3.8,65,0.00,,,0.00,meteobridge,2013-05-21 13:39:00,
2013-05-21 09:45:00,75.4,61.0,29.91,East,90,1.6,3.1,61,0.00,,,0.00,meteobridge,2013-05-21 13:45:00,
2013-05-21 09:50:00,76.1,62.1,29.91,South,180,2.2,2.2,62,0.00,,,0.00,meteobridge,2013-05-21 13:50:00,
2013-05-21 09:56:00,79.2,63.7,29.91,South,180,0.7,0.7,59,0.00,,,0.00,meteobridge,2013-05-21 13:56:00,
2013-05-21 10:02:00,78.6,62.6,29.91,West,270,3.1,5.4,58,0.00,,,0.00,meteobridge,2013-05-21 14:02:00,
2013-05-21 10:07:00,81.1,64.0,29.90,East,90,0.7,0.7,56,0.00,,,0.00,meteobridge,2013-05-21 14:07:00,
2013-05-21 10:13:00,79.2,62.1,29.91,South,180,3.8,5.4,56,0.00,,,0.00,meteobridge,2013-05-21 14:13:00,
2013-05-21 10:19:00,77.9,61.9,29.91,East,90,1.6,9.2,58,0.00,,,0.00,meteobridge,2013-05-21 14:19:00,
2013-05-21 10:24:00,81.7,63.9,29.91,SE,135,5.4,5.4,55,0.00,,,0.00,meteobridge,2013-05-21 14:24:00,
2013-05-21 10:30:00,81.0,62.8,29.91,North,0,0.0,2.2,54,0.00,,,0.00,meteobridge,2013-05-21 14:30:00,
2013-05-21 10:35:00,83.5,64.6,29.91,North,0,2.2,2.2,53,0.00,,,0.00,meteobridge,2013-05-21 14:35:00,
2013-05-21 10:41:00,81.3,62.6,29.91,South,180,1.6,2.2,53,0.00,,,0.00,meteobridge,2013-05-21 14:41:00,
2013-05-21 10:47:00,81.0,62.2,29.90,NE,45,3.1,4.5,53,0.00,,,0.00,meteobridge,2013-05-21 14:47:00,
2013-05-21 10:52:00,84.6,64.4,29.90,South,180,2.2,2.2,51,0.00,,,0.00,meteobridge,2013-05-21 14:52:00,
2013-05-21 10:58:00,81.0,62.2,29.90,East,90,3.8,6.0,53,0.00,,,0.00,meteobridge,2013-05-21 14:58:00,
2013-05-21 11:04:00,87.1,66.2,29.90,South,180,0.0,0.0,50,0.00,,,0.00,meteobridge,2013-05-21 15:04:00,
2013-05-21 11:09:00,87.1,64.9,29.90,West,270,2.2,2.2,48,0.00,,,0.00,meteobridge,2013-05-21 15:09:00,
2013-05-21 11:15:00,88.9,66.0,29.90,West,270,0.0,1.6,47,0.00,,,0.00,meteobridge,2013-05-21 15:15:00,
2013-05-21 11:21:00,87.8,64.4,29.89,South,180,4.5,4.5,46,0.00,,,0.00,meteobridge,2013-05-21 15:21:00,
2013-05-21 11:26:00,87.8,64.4,29.89,West,270,0.7,1.6,46,0.00,,,0.00,meteobridge,2013-05-21 15:26:00,
2013-05-21 11:32:00,85.1,63.1,29.89,SE,135,5.4,6.9,48,0.00,,,0.00,meteobridge,2013-05-21 15:32:00,
2013-05-21 11:38:00,88.2,64.8,29.88,NE,45,4.5,4.5,46,0.00,,,0.00,meteobridge,2013-05-21 15:38:00,
2013-05-21 11:43:00,86.4,64.4,29.88,West,270,5.4,6.9,48,0.00,,,0.00,meteobridge,2013-05-21 15:43:00,
2013-05-21 11:49:00,90.3,66.0,29.88,South,180,7.6,7.6,45,0.00,,,0.00,meteobridge,2013-05-21 15:49:00,
2013-05-21 11:54:00,91.9,67.6,29.87,North,0,0.0,0.7,45,0.00,,,0.00,meteobridge,2013-05-21 15:54:00,
2013-05-21 12:00:00,89.2,64.4,29.87,South,180,3.8,4.5,44,0.00,,,0.00,meteobridge,2013-05-21 16:00:00,
2013-05-21 12:06:00,88.3,64.2,29.87,South,180,6.0,6.0,45,0.00,,,0.00,meteobridge,2013-05-21 16:06:00,
2013-05-21 12:11:00,89.6,65.5,29.87,South,180,4.5,6.9,45,0.00,,,0.00,meteobridge,2013-05-21 16:11:00,
2013-05-21 12:17:00,91.4,67.6,29.86,SE,135,4.5,4.5,46,0.00,,,0.00,meteobridge,2013-05-21 16:17:00,
2013-05-21 12:23:00,90.7,65.8,29.86,SW,225,6.0,6.0,44,0.00,,,0.00,meteobridge,2013-05-21 16:23:00,
2013-05-21 12:28:00,90.5,65.7,29.86,West,270,1.6,3.8,44,0.00,,,0.00,meteobridge,2013-05-21 16:28:00,
2013-05-21 12:34:00,92.7,68.2,29.86,South,180,5.4,5.4,45,0.00,,,0.00,meteobridge,2013-05-21 16:34:00,
2013-05-21 12:40:00,91.9,68.2,29.86,South,180,3.1,6.0,46,0.00,,,0.00,meteobridge,2013-05-21 16:40:00,
2013-05-21 12:45:00,87.8,63.9,29.86,South,180,1.6,6.0,45,0.00,,,0.00,meteobridge,2013-05-21 16:45:00,
2013-05-21 12:51:00,88.7,64.6,29.86,SE,135,4.5,6.9,45,0.00,,,0.00,meteobridge,2013-05-21 16:51:00,
2013-05-21 12:56:00,89.1,64.9,29.86,South,180,5.4,6.0,45,0.00,,,0.00,meteobridge,2013-05-21 16:56:00,
2013-05-21 13:02:00,89.2,65.7,29.86,SW,225,6.9,6.9,46,0.00,,,0.00,meteobridge,2013-05-21 17:02:00,
2013-05-21 13:08:00,90.0,65.8,29.86,SW,225,5.4,5.4,45,0.00,,,0.00,meteobridge,2013-05-21 17:08:00,
2013-05-21 13:13:00,87.3,64.6,29.85,SW,225,6.9,7.6,47,0.00,,,0.00,meteobridge,2013-05-21 17:13:00,
2013-05-21 13:19:00,87.1,64.4,29.85,SW,225,3.8,6.0,47,0.00,,,0.00,meteobridge,2013-05-21 17:19:00,
2013-05-21 13:25:00,88.7,65.3,29.85,East,90,9.2,9.8,46,0.00,,,0.00,meteobridge,2013-05-21 17:25:00,
2013-05-21 13:30:00,89.4,66.6,29.85,SW,225,10.7,10.7,47,0.00,,,0.00,meteobridge,2013-05-21 17:30:00,
2013-05-21 13:36:00,90.3,66.0,29.85,SW,225,3.8,4.5,45,0.00,,,0.00,meteobridge,2013-05-21 17:36:00,
2013-05-21 13:42:00,89.1,64.9,29.85,South,180,4.5,6.9,45,0.00,,,0.00,meteobridge,2013-05-21 17:42:00,
2013-05-21 13:47:00,91.4,67.1,29.85,East,90,4.5,7.6,45,0.00,,,0.00,meteobridge,2013-05-21 17:47:00,
2013-05-21 13:53:00,90.7,65.8,29.84,SE,135,4.5,6.0,44,0.00,,,0.00,meteobridge,2013-05-21 17:53:00,
2013-05-21 13:58:00,91.6,67.3,29.84,SE,135,3.8,6.0,45,0.00,,,0.00,meteobridge,2013-05-21 17:58:00,
2013-05-21 14:04:00,93.2,68.0,29.84,SE,135,4.5,4.5,44,0.00,,,0.00,meteobridge,2013-05-21 18:04:00,
2013-05-21 14:10:00,91.0,66.0,29.84,South,180,6.0,6.9,44,0.00,,,0.00,meteobridge,2013-05-21 18:10:00,
2013-05-21 14:15:00,90.0,65.1,29.84,South,180,4.5,9.2,44,0.00,,,0.00,meteobridge,2013-05-21 18:15:00,
2013-05-21 14:21:00,88.3,64.2,29.84,SE,135,9.8,13.0,45,0.00,,,0.00,meteobridge,2013-05-21 18:21:00,
2013-05-21 14:27:00,88.3,64.2,29.84,North,0,5.4,8.3,45,0.00,,,0.00,meteobridge,2013-05-21 18:27:00,
2013-05-21 14:32:00,88.7,64.6,29.84,SW,225,9.2,9.2,45,0.00,,,0.00,meteobridge,2013-05-21 18:32:00,
2013-05-21 14:38:00,89.1,64.9,29.84,SW,225,9.2,12.1,45,0.00,,,0.00,meteobridge,2013-05-21 18:38:00,
2013-05-21 14:44:00,88.0,64.0,29.83,South,180,2.2,5.4,45,0.00,,,0.00,meteobridge,2013-05-21 18:44:00,
2013-05-21 14:49:00,87.3,64.0,29.84,South,180,4.5,5.4,46,0.00,,,0.00,meteobridge,2013-05-21 18:49:00,
2013-05-21 14:55:00,90.9,66.6,29.83,NW,315,9.2,9.2,45,0.00,,,0.00,meteobridge,2013-05-21 18:55:00,
2013-05-21 15:00:00,88.9,64.2,29.83,SW,225,5.4,13.0,44,0.00,,,0.00,meteobridge,2013-05-21 19:00:00,
2013-05-21 15:06:00,93.6,68.4,29.83,SW,225,6.9,6.9,44,0.00,,,0.00,meteobridge,2013-05-21 19:06:00,
2013-05-21 15:12:00,90.5,64.2,29.83,SW,225,12.1,12.1,42,0.00,,,0.00,meteobridge,2013-05-21 19:12:00,
2013-05-21 15:17:00,94.5,69.3,29.83,SW,225,3.8,3.8,44,0.00,,,0.00,meteobridge,2013-05-21 19:17:00,
2013-05-21 15:23:00,89.8,64.2,29.82,South,180,5.4,11.4,43,0.00,,,0.00,meteobridge,2013-05-21 19:23:00,
2013-05-21 15:29:00,92.8,68.4,29.82,East,90,13.6,13.6,45,0.00,,,0.00,meteobridge,2013-05-21 19:29:00,
2013-05-21 15:34:00,89.8,64.2,29.82,South,180,6.9,19.0,43,0.00,,,0.00,meteobridge,2013-05-21 19:34:00,
2013-05-21 15:40:00,92.8,68.4,29.82,SE,135,6.9,6.9,45,0.00,,,0.00,meteobridge,2013-05-21 19:40:00,
2013-05-21 15:46:00,89.6,64.2,29.81,NE,45,4.5,9.2,43,0.00,,,0.00,meteobridge,2013-05-21 19:46:00,
2013-05-21 15:51:00,89.6,64.2,29.81,West,270,6.0,6.0,43,0.00,,,0.00,meteobridge,2013-05-21 19:51:00,
2013-05-21 15:57:00,90.0,64.4,29.81,SW,225,9.2,10.7,43,0.00,,,0.00,meteobridge,2013-05-21 19:57:00,
2013-05-21 16:03:00,90.9,65.3,29.81,South,180,6.9,13.0,43,0.00,,,0.00,meteobridge,2013-05-21 20:03:00,
2013-05-21 16:08:00,92.5,68.0,29.81,West,270,7.6,7.6,45,0.00,,,0.00,meteobridge,2013-05-21 20:08:00,
2013-05-21 16:14:00,91.0,64.8,29.81,SW,225,4.5,10.7,42,0.00,,,0.00,meteobridge,2013-05-21 20:14:00,
2013-05-21 16:19:00,92.8,68.4,29.81,South,180,10.7,10.7,45,0.00,,,0.00,meteobridge,2013-05-21 20:19:00,
2013-05-21 16:25:00,91.4,66.4,29.81,SE,135,3.8,6.9,44,0.00,,,0.00,meteobridge,2013-05-21 20:25:00,
2013-05-21 16:31:00,90.9,64.6,29.81,SE,135,8.3,8.3,42,0.00,,,0.00,meteobridge,2013-05-21 20:31:00,
2013-05-21 16:36:00,89.8,64.2,29.81,SW,225,9.2,13.0,43,0.00,,,0.00,meteobridge,2013-05-21 20:36:00,
2013-05-21 16:42:00,90.7,65.1,29.80,South,180,4.5,6.0,43,0.00,,,0.00,meteobridge,2013-05-21 20:42:00,
2013-05-21 16:48:00,92.1,67.6,29.80,West,270,6.0,6.0,45,0.00,,,0.00,meteobridge,2013-05-21 20:48:00,
2013-05-21 16:53:00,91.2,65.7,29.80,East,90,4.5,6.9,43,0.00,,,0.00,meteobridge,2013-05-21 20:53:00,
2013-05-21 16:59:00,92.8,68.4,29.80,SW,225,4.5,6.9,45,0.00,,,0.00,meteobridge,2013-05-21 20:59:00,
2013-05-21 17:05:00,89.6,63.5,29.80,North,0,13.0,13.0,42,0.00,,,0.00,meteobridge,2013-05-21 21:05:00,
2013-05-21 17:10:00,90.0,64.4,29.80,SW,225,10.7,10.7,43,0.00,,,0.00,meteobridge,2013-05-21 21:10:00,
2013-05-21 17:16:00,92.8,68.4,29.79,West,270,6.9,6.9,45,0.00,,,0.00,meteobridge,2013-05-21 21:16:00,
2013-05-21 17:21:00,87.3,64.0,29.80,South,180,7.6,11.4,46,0.00,,,0.00,meteobridge,2013-05-21 21:21:00,
2013-05-21 17:27:00,88.3,64.9,29.80,South,180,10.7,10.7,46,0.00,,,0.00,meteobridge,2013-05-21 21:27:00,
2013-05-21 17:32:00,88.3,64.9,29.81,South,180,7.6,7.6,46,0.00,,,0.00,meteobridge,2013-05-21 21:32:00,
2013-05-21 17:38:00,88.2,64.8,29.81,South,180,9.2,9.2,46,0.00,,,0.00,meteobridge,2013-05-21 21:38:00,
2013-05-21 17:44:00,87.1,64.4,29.81,SE,135,6.9,6.9,47,0.00,,,0.00,meteobridge,2013-05-21 21:44:00,
2013-05-21 17:49:00,86.5,64.6,29.80,North,0,9.2,9.8,48,0.00,,,0.00,meteobridge,2013-05-21 21:49:00,
2013-05-21 17:55:00,88.0,65.3,29.80,SW,225,4.5,4.5,47,0.00,,,0.00,meteobridge,2013-05-21 21:55:00,
2013-05-21 18:00:00,88.0,65.3,29.80,SE,135,4.5,7.6,47,0.00,,,0.00,meteobridge,2013-05-21 22:00:00,
2013-05-21 18:06:00,86.9,64.8,29.81,South,180,3.1,4.5,48,0.00,,,0.00,meteobridge,2013-05-21 22:06:00,
2013-05-21 18:12:00,85.1,64.4,29.81,East,90,10.7,10.7,50,0.00,,,0.00,meteobridge,2013-05-21 22:12:00,
2013-05-21 18:17:00,84.7,64.0,29.80,South,180,6.9,7.6,50,0.00,,,0.00,meteobridge,2013-05-21 22:17:00,
2013-05-21 18:23:00,85.6,64.9,29.81,NE,45,7.6,7.6,50,0.00,,,0.00,meteobridge,2013-05-21 22:23:00,
2013-05-21 18:29:00,85.6,64.9,29.81,SE,135,7.6,10.7,50,0.00,,,0.00,meteobridge,2013-05-21 22:29:00,
2013-05-21 18:34:00,85.8,64.9,29.82,South,180,6.9,10.7,50,0.00,,,0.00,meteobridge,2013-05-21 22:34:00,
2013-05-21 18:40:00,86.9,65.5,29.82,SE,135,2.2,9.8,49,0.00,,,0.00,meteobridge,2013-05-21 22:40:00,
2013-05-21 18:46:00,86.2,64.8,29.82,SE,135,9.2,9.2,49,0.00,,,0.00,meteobridge,2013-05-21 22:46:00,
2013-05-21 18:51:00,84.7,64.0,29.82,North,0,3.8,8.3,50,0.00,,,0.00,meteobridge,2013-05-21 22:51:00,
2013-05-21 18:57:00,84.7,64.0,29.82,SW,225,11.4,11.4,50,0.00,,,0.00,meteobridge,2013-05-21 22:57:00,
2013-05-21 19:03:00,84.2,63.5,29.82,SW,225,4.5,7.6,50,0.00,,,0.00,meteobridge,2013-05-21 23:03:00,
2013-05-21 19:08:00,85.3,64.6,29.82,East,90,4.5,4.5,50,0.00,,,0.00,meteobridge,2013-05-21 23:08:00,
2013-05-21 19:14:00,82.9,63.0,29.83,East,90,5.4,9.2,51,0.00,,,0.00,meteobridge,2013-05-21 23:14:00,
2013-05-21 19:19:00,82.6,63.1,29.83,South,180,0.7,8.3,52,0.00,,,0.00,meteobridge,2013-05-21 23:19:00,
2013-05-21 19:25:00,82.0,62.6,29.83,SE,135,2.2,15.2,52,0.00,,,0.00,meteobridge,2013-05-21 23:25:00,
2013-05-21 19:31:00,84.4,63.7,29.83,South,180,3.1,4.5,50,0.00,,,0.00,meteobridge,2013-05-21 23:31:00,
2013-05-21 19:36:00,84.6,63.9,29.83,North,0,0.7,5.4,50,0.00,,,0.00,meteobridge,2013-05-21 23:36:00,
2013-05-21 19:42:00,82.6,63.1,29.82,SW,225,5.4,7.6,52,0.00,,,0.00,meteobridge,2013-05-21 23:42:00,
2013-05-21 19:48:00,82.8,62.8,29.82,South,180,6.0,6.0,51,0.00,,,0.00,meteobridge,2013-05-21 23:48:00,
2013-05-21 19:53:00,83.5,64.0,29.82,West,270,4.5,4.5,52,0.00,,,0.00,meteobridge,2013-05-21 23:53:00,
2013-05-21 19:59:00,82.9,63.0,29.83,South,180,7.6,7.6,51,0.00,,,0.00,meteobridge,2013-05-21 23:59:00,
2013-05-21 20:05:00,81.1,61.9,29.83,East,90,0.0,0.0,52,0.00,,,0.00,meteobridge,2013-05-22 00:05:00,
2013-05-21 20:10:00,80.6,61.9,29.83,South,180,3.1,3.1,53,0.00,,,0.00,meteobridge,2013-05-22 00:10:00,
2013-05-21 20:16:00,81.0,62.2,29.83,South,180,1.6,2.2,53,0.00,,,0.00,meteobridge,2013-05-22 00:16:00,
2013-05-21 20:21:00,81.3,62.6,29.83,West,270,1.6,5.4,53,0.00,,,0.00,meteobridge,2013-05-22 00:21:00,
2013-05-21 20:27:00,80.4,62.8,29.83,North,0,0.7,7.6,55,0.00,,,0.00,meteobridge,2013-05-22 00:27:00,
2013-05-21 20:33:00,80.4,62.2,29.83,South,180,0.0,4.5,54,0.00,,,0.00,meteobridge,2013-05-22 00:33:00,
2013-05-21 20:38:00,80.4,62.8,29.83,North,0,0.0,1.6,55,0.00,,,0.00,meteobridge,2013-05-22 00:38:00,
2013-05-21 20:44:00,80.6,62.4,29.83,South,180,1.6,5.4,54,0.00,,,0.00,meteobridge,2013-05-22 00:44:00,
2013-05-21 20:50:00,80.4,62.8,29.83,East,90,3.8,4.5,55,0.00,,,0.00,meteobridge,2013-05-22 00:50:00,
2013-05-21 20:55:00,80.1,62.4,29.83,South,180,5.4,5.4,55,0.00,,,0.00,meteobridge,2013-05-22 00:55:00,
2013-05-21 21:01:00,80.6,62.4,29.83,West,270,0.0,3.8,54,0.00,,,0.00,meteobridge,2013-05-22 01:01:00,
2013-05-21 21:07:00,78.1,61.5,29.83,East,90,0.0,0.0,57,0.00,,,0.00,meteobridge,2013-05-22 01:07:00,
2013-05-21 21:12:00,77.7,61.7,29.83,South,180,2.2,2.2,58,0.00,,,0.00,meteobridge,2013-05-22 01:12:00,
2013-05-21 21:18:00,79.0,61.9,29.82,South,180,3.8,4.5,56,0.00,,,0.00,meteobridge,2013-05-22 01:18:00,
2013-05-21 21:23:00,78.4,61.9,29.82,South,180,9.8,9.8,57,0.00,,,0.00,meteobridge,2013-05-22 01:23:00,
2013-05-21 21:29:00,78.8,62.2,29.82,West,270,0.7,7.6,57,0.00,,,0.00,meteobridge,2013-05-22 01:29:00,
2013-05-21 21:35:00,77.5,61.5,29.82,North,0,3.1,4.5,58,0.00,,,0.00,meteobridge,2013-05-22 01:35:00,
2013-05-21 21:40:00,75.4,60.4,29.82,South,180,3.8,4.5,60,0.00,,,0.00,meteobridge,2013-05-22 01:40:00,
2013-05-21 21:46:00,74.8,61.0,29.82,SE,135,3.8,3.8,62,0.00,,,0.00,meteobridge,2013-05-22 01:46:00,
2013-05-21 21:52:00,74.7,61.2,29.82,West,270,5.4,5.4,63,0.00,,,0.00,meteobridge,2013-05-22 01:52:00,
2013-05-21 21:57:00,75.9,61.9,29.82,South,180,3.8,5.4,62,0.00,,,0.00,meteobridge,2013-05-22 01:57:00,
2013-05-21 22:02:00,76.3,61.3,29.82,East,90,3.1,4.5,60,0.00,,,0.00,meteobridge,2013-05-22 02:02:00,
2013-05-21 22:08:00,77.2,61.7,29.82,North,0,3.1,6.9,59,0.00,,,0.00,meteobridge,2013-05-22 02:08:00,
2013-05-21 22:14:00,76.8,61.3,29.82,NW,315,5.4,5.4,59,0.00,,,0.00,meteobridge,2013-05-22 02:14:00,
2013-05-21 22:19:00,76.5,61.0,29.82,South,180,3.1,7.6,59,0.00,,,0.00,meteobridge,2013-05-22 02:19:00,
2013-05-21 22:25:00,75.6,60.3,29.82,South,180,6.0,6.0,59,0.00,,,0.00,meteobridge,2013-05-22 02:25:00,
2013-05-21 22:30:00,73.4,60.1,29.80,South,180,2.2,5.4,63,0.00,,,0.00,meteobridge,2013-05-22 02:30:00,
2013-05-21 22:36:00,73.0,59.7,29.80,South,180,5.4,10.7,63,0.00,,,0.00,meteobridge,2013-05-22 02:36:00,
2013-05-21 22:42:00,72.9,59.9,29.80,South,180,2.2,4.5,64,0.00,,,0.00,meteobridge,2013-05-22 02:42:00,
2013-05-21 22:47:00,72.7,59.7,29.81,South,180,1.6,7.6,64,0.00,,,0.00,meteobridge,2013-05-22 02:47:00,
2013-05-21 22:53:00,74.5,61.9,29.82,SE,135,3.8,3.8,65,0.00,,,0.00,meteobridge,2013-05-22 02:53:00,
2013-05-21 22:59:00,75.0,61.2,29.83,SE,135,3.1,4.5,62,0.00,,,0.00,meteobridge,2013-05-22 02:59:00,
2013-05-21 23:04:00,73.9,60.1,29.82,East,90,0.0,0.0,62,0.00,,,0.00,meteobridge,2013-05-22 03:04:00,
2013-05-21 23:10:00,72.9,59.5,29.83,South,180,0.7,3.1,63,0.00,,,0.00,meteobridge,2013-05-22 03:10:00,
2013-05-21 23:16:00,72.1,58.8,29.83,South,180,0.0,0.0,63,0.00,,,0.00,meteobridge,2013-05-22 03:16:00,
2013-05-21 23:21:00,71.8,59.0,29.83,South,180,0.0,2.2,64,0.00,,,0.00,meteobridge,2013-05-22 03:21:00,
2013-05-21 23:27:00,71.6,59.2,29.83,South,180,1.6,1.6,65,0.00,,,0.00,meteobridge,2013-05-22 03:27:00,
2013-05-21 23:32:00,71.1,59.2,29.83,North,0,1.6,1.6,66,0.00,,,0.00,meteobridge,2013-05-22 03:32:00,
2013-05-21 23:38:00,70.5,59.0,29.84,NE,45,0.0,0.0,67,0.00,,,0.00,meteobridge,2013-05-22 03:38:00,
2013-05-21 23:44:00,71.2,59.7,29.84,North,0,0.0,0.0,67,0.00,,,0.00,meteobridge,2013-05-22 03:44:00,
2013-05-21 23:49:00,71.1,59.5,29.84,West,270,1.6,1.6,67,0.00,,,0.00,meteobridge,2013-05-22 03:49:00,
2013-05-21 23:55:00,71.4,59.5,29.83,West,270,0.0,0.0,66,0.00,,,0.00,meteobridge,2013-05-22 03:55:00,